sensor_id;sensor_type;location;lat;lon;timestamp;temperature;humidity
19947;DHT22;10135;50.702;7.276;2024-02-15T06:00:31;15.40;70.50
19947;DHT22;10135;50.702;7.276;2024-02-15T06:02:31;15.40;70.40
19947;DHT22;10135;50.702;7.276;2024-02-15T06:04:33;15.30;70.40
19947;DHT22;10135;50.702;7.276;2024-02-15T06:06:34;15.30;70.40
19947;DHT22;10135;50.702;7.276;2024-02-15T06:08:36;15.30;70.40
19947;DHT22;10135;50.702;7.276;2024-02-15T06:10:36;15.40;70.60
19947;DHT22;10135;50.702;7.276;2024-02-15T06:12:37;15.40;70.50
19947;DHT22;10135;50.702;7.276;2024-02-15T06:14:38;15.40;70.60
19947;DHT22;10135;50.702;7.276;2024-02-15T06:16:43;15.40;70.60
19947;DHT22;10135;50.702;7.276;2024-02-15T06:18:46;15.40;70.60
19947;DHT22;10135;50.702;7.276;2024-02-15T06:20:48;15.40;70.60
19947;DHT22;10135;50.702;7.276;2024-02-15T06:22:51;15.40;70.50
19947;DHT22;10135;50.702;7.276;2024-02-15T06:24:52;15.40;70.60
19947;DHT22;10135;50.702;7.276;2024-02-15T06:26:53;15.40;70.50
19947;DHT22;10135;50.702;7.276;2024-02-15T06:29:00;15.40;70.50
19947;DHT22;10135;50.702;7.276;2024-02-15T06:31:19;15.40;70.50
19947;DHT22;10135;50.702;7.276;2024-02-15T06:33:38;15.40;70.40
19947;DHT22;10135;50.702;7.276;2024-02-15T06:35:57;15.40;70.40
19947;DHT22;10135;50.702;7.276;2024-02-15T06:38:16;15.40;70.40
19947;DHT22;10135;50.702;7.276;2024-02-15T06:40:35;15.40;70.40
19947;DHT22;10135;50.702;7.276;2024-02-15T06:42:37;15.40;70.40
19947;DHT22;10135;50.702;7.276;2024-02-15T06:44:38;15.40;70.50
19947;DHT22;10135;50.702;7.276;2024-02-15T06:46:40;15.40;70.50
19947;DHT22;10135;50.702;7.276;2024-02-15T06:48:42;15.40;70.00
19947;DHT22;10135;50.702;7.276;2024-02-15T06:50:49;15.40;70.50
19947;DHT22;10135;50.702;7.276;2024-02-15T06:52:50;15.40;70.50
19947;DHT22;10135;50.702;7.276;2024-02-15T06:54:51;15.40;70.40
19947;DHT22;10135;50.702;7.276;2024-02-15T06:56:52;15.40;70.40
19947;DHT22;10135;50.702;7.276;2024-02-15T06:58:54;15.40;70.50
19947;DHT22;10135;50.702;7.276;2024-02-15T07:00:56;15.40;70.40
19947;DHT22;10135;50.702;7.276;2024-02-15T07:02:56;15.40;70.40
19947;DHT22;10135;50.702;7.276;2024-02-15T07:04:57;15.40;70.40
19947;DHT22;10135;50.702;7.276;2024-02-15T07:06:57;15.50;70.40
19947;DHT22;10135;50.702;7.276;2024-02-15T07:08:58;15.40;70.40
19947;DHT22;10135;50.702;7.276;2024-02-15T07:10:59;15.50;70.40
19947;DHT22;10135;50.702;7.276;2024-02-15T07:12:59;15.40;70.40
19947;DHT22;10135;50.702;7.276;2024-02-15T07:15:00;15.50;70.50
19947;DHT22;10135;50.702;7.276;2024-02-15T07:17:02;15.50;70.50
19947;DHT22;10135;50.702;7.276;2024-02-15T07:19:08;15.50;70.50
19947;DHT22;10135;50.702;7.276;2024-02-15T07:21:13;15.50;70.40
19947;DHT22;10135;50.702;7.276;2024-02-15T07:23:19;15.50;70.50
19947;DHT22;10135;50.702;7.276;2024-02-15T07:25:21;15.50;70.40
19947;DHT22;10135;50.702;7.276;2024-02-15T07:27:21;15.50;70.40
19947;DHT22;10135;50.702;7.276;2024-02-15T07:29:25;15.50;70.40
19947;DHT22;10135;50.702;7.276;2024-02-15T07:31:28;15.50;70.40
19947;DHT22;10135;50.702;7.276;2024-02-15T07:33:29;15.50;70.40
19947;DHT22;10135;50.702;7.276;2024-02-15T07:35:30;15.50;70.40
19947;DHT22;10135;50.702;7.276;2024-02-15T07:37:31;15.50;70.40
19947;DHT22;10135;50.702;7.276;2024-02-15T07:39:33;15.50;70.40
19947;DHT22;10135;50.702;7.276;2024-02-15T07:41:33;15.50;70.40
19947;DHT22;10135;50.702;7.276;2024-02-15T07:43:34;15.50;70.40
19947;DHT22;10135;50.702;7.276;2024-02-15T07:45:35;15.50;70.40
19947;DHT22;10135;50.702;7.276;2024-02-15T07:47:37;15.60;70.40
19947;DHT22;10135;50.702;7.276;2024-02-15T07:49:39;15.50;70.40
19947;DHT22;10135;50.702;7.276;2024-02-15T07:51:40;15.50;70.40
19947;DHT22;10135;50.702;7.276;2024-02-15T07:53:41;15.60;70.50
19947;DHT22;10135;50.702;7.276;2024-02-15T07:55:43;15.60;70.50
19947;DHT22;10135;50.702;7.276;2024-02-15T07:57:44;15.60;70.40
19947;DHT22;10135;50.702;7.276;2024-02-15T07:59:48;15.60;70.50
19947;DHT22;10135;50.702;7.276;2024-02-15T08:01:49;15.60;70.50
19947;DHT22;10135;50.702;7.276;2024-02-15T08:03:52;15.60;70.50
19947;DHT22;10135;50.702;7.276;2024-02-15T08:05:53;15.60;70.40
19947;DHT22;10135;50.702;7.276;2024-02-15T08:07:54;15.60;70.40
19947;DHT22;10135;50.702;7.276;2024-02-15T08:09:57;15.60;70.50
19947;DHT22;10135;50.702;7.276;2024-02-15T08:11:58;15.60;70.40
19947;DHT22;10135;50.702;7.276;2024-02-15T08:13:59;15.60;70.40
19947;DHT22;10135;50.702;7.276;2024-02-15T08:15:59;15.60;70.40
19947;DHT22;10135;50.702;7.276;2024-02-15T08:18:00;15.60;70.50
19947;DHT22;10135;50.702;7.276;2024-02-15T08:20:09;15.60;70.40
19947;DHT22;10135;50.702;7.276;2024-02-15T08:22:11;15.60;70.40
19947;DHT22;10135;50.702;7.276;2024-02-15T08:24:12;15.60;70.50
19947;DHT22;10135;50.702;7.276;2024-02-15T08:26:12;15.50;70.40
19947;DHT22;10135;50.702;7.276;2024-02-15T08:28:13;15.60;70.50
19947;DHT22;10135;50.702;7.276;2024-02-15T08:30:14;15.50;70.40
19947;DHT22;10135;50.702;7.276;2024-02-15T08:32:15;15.60;70.50
19947;DHT22;10135;50.702;7.276;2024-02-15T08:34:15;15.60;70.60
19947;DHT22;10135;50.702;7.276;2024-02-15T08:36:18;15.60;70.60
19947;DHT22;10135;50.702;7.276;2024-02-15T08:38:19;15.60;70.60
19947;DHT22;10135;50.702;7.276;2024-02-15T08:40:20;15.60;70.50
19947;DHT22;10135;50.702;7.276;2024-02-15T08:42:25;15.60;70.70
19947;DHT22;10135;50.702;7.276;2024-02-15T08:44:26;15.60;70.70
19947;DHT22;10135;50.702;7.276;2024-02-15T08:46:26;15.60;70.70
19947;DHT22;10135;50.702;7.276;2024-02-15T08:48:27;15.60;70.70
19947;DHT22;10135;50.702;7.276;2024-02-15T08:50:28;15.60;70.70
19947;DHT22;10135;50.702;7.276;2024-02-15T08:52:28;15.60;70.70
19947;DHT22;10135;50.702;7.276;2024-02-15T08:54:29;15.60;70.80
19947;DHT22;10135;50.702;7.276;2024-02-15T08:56:35;15.70;70.80
19947;DHT22;10135;50.702;7.276;2024-02-15T08:58:36;15.70;70.70
19947;DHT22;10135;50.702;7.276;2024-02-15T09:00:39;15.70;70.70
19947;DHT22;10135;50.702;7.276;2024-02-15T09:02:48;15.70;70.70
19947;DHT22;10135;50.702;7.276;2024-02-15T09:04:53;15.70;70.70
19947;DHT22;10135;50.702;7.276;2024-02-15T09:06:53;15.70;70.70
19947;DHT22;10135;50.702;7.276;2024-02-15T09:08:54;15.70;70.70
19947;DHT22;10135;50.702;7.276;2024-02-15T09:10:54;15.70;70.70
19947;DHT22;10135;50.702;7.276;2024-02-15T09:12:55;15.70;70.70
19947;DHT22;10135;50.702;7.276;2024-02-15T09:14:56;15.70;70.70
19947;DHT22;10135;50.702;7.276;2024-02-15T09:16:57;15.60;70.70
19947;DHT22;10135;50.702;7.276;2024-02-15T09:18:57;15.70;70.90
19947;DHT22;10135;50.702;7.276;2024-02-15T09:21:02;15.70;70.90
19947;DHT22;10135;50.702;7.276;2024-02-15T09:23:05;15.70;70.80
19947;DHT22;10135;50.702;7.276;2024-02-15T09:25:09;15.70;70.80
19947;DHT22;10135;50.702;7.276;2024-02-15T09:27:10;15.70;70.90
19947;DHT22;10135;50.702;7.276;2024-02-15T09:29:12;15.70;70.90
19947;DHT22;10135;50.702;7.276;2024-02-15T09:31:13;15.70;70.90
19947;DHT22;10135;50.702;7.276;2024-02-15T09:33:14;15.70;70.90
19947;DHT22;10135;50.702;7.276;2024-02-15T09:35:14;15.70;71.00
19947;DHT22;10135;50.702;7.276;2024-02-15T09:37:15;15.80;71.00
19947;DHT22;10135;50.702;7.276;2024-02-15T09:39:16;15.80;71.00
19947;DHT22;10135;50.702;7.276;2024-02-15T09:41:18;15.80;71.10
19947;DHT22;10135;50.702;7.276;2024-02-15T09:43:19;15.80;71.10
19947;DHT22;10135;50.702;7.276;2024-02-15T09:45:19;15.90;71.10
19947;DHT22;10135;50.702;7.276;2024-02-15T09:47:21;15.90;71.10
19947;DHT22;10135;50.702;7.276;2024-02-15T09:49:24;16.00;71.20
19947;DHT22;10135;50.702;7.276;2024-02-15T09:51:28;16.00;71.10
19947;DHT22;10135;50.702;7.276;2024-02-15T09:53:32;16.10;71.10
19947;DHT22;10135;50.702;7.276;2024-02-15T09:55:36;16.10;71.00
19947;DHT22;10135;50.702;7.276;2024-02-15T09:57:42;16.20;71.00
19947;DHT22;10135;50.702;7.276;2024-02-15T09:59:44;16.20;71.00
19947;DHT22;10135;50.702;7.276;2024-02-15T10:01:47;16.30;70.90
19947;DHT22;10135;50.702;7.276;2024-02-15T10:03:52;16.30;70.80
19947;DHT22;10135;50.702;7.276;2024-02-15T10:05:53;16.40;70.80
19947;DHT22;10135;50.702;7.276;2024-02-15T10:07:53;16.40;70.80
19947;DHT22;10135;50.702;7.276;2024-02-15T10:09:55;16.50;70.80
19947;DHT22;10135;50.702;7.276;2024-02-15T10:12:01;16.50;70.80
19947;DHT22;10135;50.702;7.276;2024-02-15T10:14:12;16.70;70.70
19947;DHT22;10135;50.702;7.276;2024-02-15T10:16:17;16.70;70.60
19947;DHT22;10135;50.702;7.276;2024-02-15T10:18:20;16.80;70.70
19947;DHT22;10135;50.702;7.276;2024-02-15T10:20:23;16.90;70.70
19947;DHT22;10135;50.702;7.276;2024-02-15T10:22:26;16.90;71.30
19947;DHT22;10135;50.702;7.276;2024-02-15T10:24:27;17.10;70.60
19947;DHT22;10135;50.702;7.276;2024-02-15T10:26:28;17.10;70.30
19947;DHT22;10135;50.702;7.276;2024-02-15T10:28:29;17.20;70.20
19947;DHT22;10135;50.702;7.276;2024-02-15T10:30:30;17.20;70.00
19947;DHT22;10135;50.702;7.276;2024-02-15T10:32:35;17.20;69.90
19947;DHT22;10135;50.702;7.276;2024-02-15T10:34:43;17.30;69.70
19947;DHT22;10135;50.702;7.276;2024-02-15T10:36:47;17.40;69.30
19947;DHT22;10135;50.702;7.276;2024-02-15T10:38:48;17.40;69.70
19947;DHT22;10135;50.702;7.276;2024-02-15T10:40:50;17.40;69.50
19947;DHT22;10135;50.702;7.276;2024-02-15T10:43:05;17.50;69.40
19947;DHT22;10135;50.702;7.276;2024-02-15T10:45:06;17.50;69.30
19947;DHT22;10135;50.702;7.276;2024-02-15T10:47:11;17.50;69.10
19947;DHT22;10135;50.702;7.276;2024-02-15T10:49:12;17.50;69.00
19947;DHT22;10135;50.702;7.276;2024-02-15T10:51:14;17.60;69.00
19947;DHT22;10135;50.702;7.276;2024-02-15T10:53:30;17.60;69.50
19947;DHT22;10135;50.702;7.276;2024-02-15T10:57:46;17.60;68.60
19947;DHT22;10135;50.702;7.276;2024-02-15T10:59:55;17.60;68.30
19947;DHT22;10135;50.702;7.276;2024-02-15T11:01:59;17.60;68.30
19947;DHT22;10135;50.702;7.276;2024-02-15T11:04:06;17.60;68.30
19947;DHT22;10135;50.702;7.276;2024-02-15T11:06:09;17.70;68.10
19947;DHT22;10135;50.702;7.276;2024-02-15T11:08:11;17.70;68.40
19947;DHT22;10135;50.702;7.276;2024-02-15T11:10:13;17.80;68.50
19947;DHT22;10135;50.702;7.276;2024-02-15T11:12:17;17.80;68.50
19947;DHT22;10135;50.702;7.276;2024-02-15T11:14:30;17.80;68.30
19947;DHT22;10135;50.702;7.276;2024-02-15T11:16:43;17.90;67.70
19947;DHT22;10135;50.702;7.276;2024-02-15T11:18:46;17.90;67.60
19947;DHT22;10135;50.702;7.276;2024-02-15T11:20:55;17.90;67.90
19947;DHT22;10135;50.702;7.276;2024-02-15T11:23:00;17.90;67.90
19947;DHT22;10135;50.702;7.276;2024-02-15T11:25:03;18.00;67.90
19947;DHT22;10135;50.702;7.276;2024-02-15T11:27:12;18.00;67.80
19947;DHT22;10135;50.702;7.276;2024-02-15T11:32:09;18.00;67.00
19947;DHT22;10135;50.702;7.276;2024-02-15T11:34:44;18.00;67.70
19947;DHT22;10135;50.702;7.276;2024-02-15T11:36:46;18.00;67.10
19947;DHT22;10135;50.702;7.276;2024-02-15T11:38:46;18.10;67.80
19947;DHT22;10135;50.702;7.276;2024-02-15T11:42:58;18.10;67.40
19947;DHT22;10135;50.702;7.276;2024-02-15T11:45:06;18.10;67.30
19947;DHT22;10135;50.702;7.276;2024-02-15T11:47:09;18.10;67.10
19947;DHT22;10135;50.702;7.276;2024-02-15T11:49:15;18.20;67.40
19947;DHT22;10135;50.702;7.276;2024-02-15T11:51:35;18.20;67.20
19947;DHT22;10135;50.702;7.276;2024-02-15T11:53:43;18.30;66.70
19947;DHT22;10135;50.702;7.276;2024-02-15T11:55:43;18.30;67.40
19947;DHT22;10135;50.702;7.276;2024-02-15T11:57:59;18.40;67.40
19947;DHT22;10135;50.702;7.276;2024-02-15T12:00:05;18.40;66.70
19947;DHT22;10135;50.702;7.276;2024-02-15T12:02:26;18.50;67.30
19947;DHT22;10135;50.702;7.276;2024-02-15T12:04:46;18.50;67.00
19947;DHT22;10135;50.702;7.276;2024-02-15T12:07:05;18.60;66.90
19947;DHT22;10135;50.702;7.276;2024-02-15T12:09:25;18.70;66.90
19947;DHT22;10135;50.702;7.276;2024-02-15T12:11:44;18.70;66.80
19947;DHT22;10135;50.702;7.276;2024-02-15T12:14:04;18.70;66.80
19947;DHT22;10135;50.702;7.276;2024-02-15T12:16:23;18.70;66.60
19947;DHT22;10135;50.702;7.276;2024-02-15T12:18:42;18.70;66.50
19947;DHT22;10135;50.702;7.276;2024-02-15T12:20:45;18.80;66.50
19947;DHT22;10135;50.702;7.276;2024-02-15T12:22:47;18.80;66.40
19947;DHT22;10135;50.702;7.276;2024-02-15T12:24:54;18.80;66.30
19947;DHT22;10135;50.702;7.276;2024-02-15T12:27:02;18.80;65.80
19947;DHT22;10135;50.702;7.276;2024-02-15T12:29:06;18.90;65.60
19947;DHT22;10135;50.702;7.276;2024-02-15T12:31:09;18.90;66.10
19947;DHT22;10135;50.702;7.276;2024-02-15T12:33:11;18.90;66.00
19947;DHT22;10135;50.702;7.276;2024-02-15T12:35:19;18.90;65.90
19947;DHT22;10135;50.702;7.276;2024-02-15T12:37:22;19.00;65.20
19947;DHT22;10135;50.702;7.276;2024-02-15T12:39:24;19.00;65.70
19947;DHT22;10135;50.702;7.276;2024-02-15T12:41:25;19.00;65.60
19947;DHT22;10135;50.702;7.276;2024-02-15T12:43:26;19.00;65.50
19947;DHT22;10135;50.702;7.276;2024-02-15T12:45:28;19.10;65.60
19947;DHT22;10135;50.702;7.276;2024-02-15T12:47:30;19.00;65.40
19947;DHT22;10135;50.702;7.276;2024-02-15T12:49:32;19.10;65.40
19947;DHT22;10135;50.702;7.276;2024-02-15T12:51:35;19.10;65.40
19947;DHT22;10135;50.702;7.276;2024-02-15T12:53:35;19.10;65.30
19947;DHT22;10135;50.702;7.276;2024-02-15T12:55:37;19.10;65.30
19947;DHT22;10135;50.702;7.276;2024-02-15T12:57:40;19.10;65.10
19947;DHT22;10135;50.702;7.276;2024-02-15T12:59:43;19.20;65.20
19947;DHT22;10135;50.702;7.276;2024-02-15T13:01:43;19.20;65.10
19947;DHT22;10135;50.702;7.276;2024-02-15T13:03:45;19.30;65.20
19947;DHT22;10135;50.702;7.276;2024-02-15T13:05:45;19.30;65.20
19947;DHT22;10135;50.702;7.276;2024-02-15T13:07:47;19.30;65.10
19947;DHT22;10135;50.702;7.276;2024-02-15T13:09:49;19.40;64.90
19947;DHT22;10135;50.702;7.276;2024-02-15T13:11:50;19.40;64.80
19947;DHT22;10135;50.702;7.276;2024-02-15T13:13:50;19.40;64.60
19947;DHT22;10135;50.702;7.276;2024-02-15T13:15:51;19.50;64.70
19947;DHT22;10135;50.702;7.276;2024-02-15T13:17:56;19.40;64.50
19947;DHT22;10135;50.702;7.276;2024-02-15T13:19:57;19.50;64.10
19947;DHT22;10135;50.702;7.276;2024-02-15T13:22:03;19.50;64.40
19947;DHT22;10135;50.702;7.276;2024-02-15T13:24:04;19.50;65.10
19947;DHT22;10135;50.702;7.276;2024-02-15T13:26:05;19.50;64.20
19947;DHT22;10135;50.702;7.276;2024-02-15T13:28:06;19.50;64.10
19947;DHT22;10135;50.702;7.276;2024-02-15T13:30:07;19.50;64.00
19947;DHT22;10135;50.702;7.276;2024-02-15T13:32:09;19.50;63.80
19947;DHT22;10135;50.702;7.276;2024-02-15T13:34:12;19.50;63.80
19947;DHT22;10135;50.702;7.276;2024-02-15T13:36:13;19.50;63.80
19947;DHT22;10135;50.702;7.276;2024-02-15T13:38:15;19.40;63.60
19947;DHT22;10135;50.702;7.276;2024-02-15T13:40:23;19.40;63.60
19947;DHT22;10135;50.702;7.276;2024-02-15T13:42:25;19.50;63.60
19947;DHT22;10135;50.702;7.276;2024-02-15T13:44:25;19.40;63.50
19947;DHT22;10135;50.702;7.276;2024-02-15T13:46:26;19.40;63.40
19947;DHT22;10135;50.702;7.276;2024-02-15T13:48:30;19.40;63.40
19947;DHT22;10135;50.702;7.276;2024-02-15T13:50:31;19.40;63.10
19947;DHT22;10135;50.702;7.276;2024-02-15T13:52:33;19.40;63.40
19947;DHT22;10135;50.702;7.276;2024-02-15T13:54:34;19.30;63.30
19947;DHT22;10135;50.702;7.276;2024-02-15T13:56:35;19.30;63.30
19947;DHT22;10135;50.702;7.276;2024-02-15T13:58:36;19.30;64.00
19947;DHT22;10135;50.702;7.276;2024-02-15T14:00:36;19.30;63.20
19947;DHT22;10135;50.702;7.276;2024-02-15T14:02:37;19.30;63.10
19947;DHT22;10135;50.702;7.276;2024-02-15T14:04:38;19.20;62.90
19947;DHT22;10135;50.702;7.276;2024-02-15T14:06:39;19.20;62.90
19947;DHT22;10135;50.702;7.276;2024-02-15T14:08:40;19.10;62.90
19947;DHT22;10135;50.702;7.276;2024-02-15T14:10:41;19.10;62.90
19947;DHT22;10135;50.702;7.276;2024-02-15T14:12:41;19.10;62.90
19947;DHT22;10135;50.702;7.276;2024-02-15T14:14:42;19.10;62.90
19947;DHT22;10135;50.702;7.276;2024-02-15T14:16:43;19.00;62.80
19947;DHT22;10135;50.702;7.276;2024-02-15T14:18:44;19.00;62.80
19947;DHT22;10135;50.702;7.276;2024-02-15T14:20:45;19.00;62.80
19947;DHT22;10135;50.702;7.276;2024-02-15T14:22:50;19.00;62.80
19947;DHT22;10135;50.702;7.276;2024-02-15T14:24:57;19.00;63.60
19947;DHT22;10135;50.702;7.276;2024-02-15T14:26:58;19.00;62.90
19947;DHT22;10135;50.702;7.276;2024-02-15T14:28:59;18.90;62.80
19947;DHT22;10135;50.702;7.276;2024-02-15T14:31:03;19.00;62.80
19947;DHT22;10135;50.702;7.276;2024-02-15T14:33:22;18.90;62.70
19947;DHT22;10135;50.702;7.276;2024-02-15T14:35:24;18.90;62.70
19947;DHT22;10135;50.702;7.276;2024-02-15T14:37:25;18.90;62.70
19947;DHT22;10135;50.702;7.276;2024-02-15T14:39:25;18.90;62.60
19947;DHT22;10135;50.702;7.276;2024-02-15T14:41:26;18.90;62.60
19947;DHT22;10135;50.702;7.276;2024-02-15T14:43:28;18.90;62.60
19947;DHT22;10135;50.702;7.276;2024-02-15T14:45:29;18.90;62.60
19947;DHT22;10135;50.702;7.276;2024-02-15T14:47:30;18.90;62.60
19947;DHT22;10135;50.702;7.276;2024-02-15T14:49:31;18.90;62.50
19947;DHT22;10135;50.702;7.276;2024-02-15T14:51:31;18.80;62.40
19947;DHT22;10135;50.702;7.276;2024-02-15T14:53:34;18.90;62.40
19947;DHT22;10135;50.702;7.276;2024-02-15T14:55:36;18.80;62.30
19947;DHT22;10135;50.702;7.276;2024-02-15T14:57:42;18.80;62.30
19947;DHT22;10135;50.702;7.276;2024-02-15T14:59:43;18.80;62.20
19947;DHT22;10135;50.702;7.276;2024-02-15T15:01:44;18.80;62.20
19947;DHT22;10135;50.702;7.276;2024-02-15T15:03:53;18.80;62.20
19947;DHT22;10135;50.702;7.276;2024-02-15T15:05:55;18.80;61.80
19947;DHT22;10135;50.702;7.276;2024-02-15T15:08:14;18.70;62.10
19947;DHT22;10135;50.702;7.276;2024-02-15T15:10:33;18.70;62.20
19947;DHT22;10135;50.702;7.276;2024-02-15T15:12:52;18.70;62.20
19947;DHT22;10135;50.702;7.276;2024-02-15T15:14:53;18.70;62.20
19947;DHT22;10135;50.702;7.276;2024-02-15T15:16:55;18.70;62.20
19947;DHT22;10135;50.702;7.276;2024-02-15T15:18:56;18.70;62.10
19947;DHT22;10135;50.702;7.276;2024-02-15T15:20:57;18.70;62.10
19947;DHT22;10135;50.702;7.276;2024-02-15T15:22:59;18.70;62.10
19947;DHT22;10135;50.702;7.276;2024-02-15T15:25:01;18.70;62.00
19947;DHT22;10135;50.702;7.276;2024-02-15T15:27:01;18.60;61.90
19947;DHT22;10135;50.702;7.276;2024-02-15T15:29:05;18.60;61.90
19947;DHT22;10135;50.702;7.276;2024-02-15T15:31:06;18.60;61.90
19947;DHT22;10135;50.702;7.276;2024-02-15T15:33:07;18.60;61.90
19947;DHT22;10135;50.702;7.276;2024-02-15T15:35:09;18.50;61.80
19947;DHT22;10135;50.702;7.276;2024-02-15T15:37:10;18.50;61.80
19947;DHT22;10135;50.702;7.276;2024-02-15T15:39:12;18.50;61.70
19947;DHT22;10135;50.702;7.276;2024-02-15T15:41:13;18.50;61.70
19947;DHT22;10135;50.702;7.276;2024-02-15T15:43:13;18.40;61.60
19947;DHT22;10135;50.702;7.276;2024-02-15T15:45:15;18.40;61.70
19947;DHT22;10135;50.702;7.276;2024-02-15T15:47:15;18.40;61.60
19947;DHT22;10135;50.702;7.276;2024-02-15T15:49:16;18.40;61.60
19947;DHT22;10135;50.702;7.276;2024-02-15T15:51:17;18.30;61.60
19947;DHT22;10135;50.702;7.276;2024-02-15T15:53:19;18.30;61.60
19947;DHT22;10135;50.702;7.276;2024-02-15T15:55:20;18.30;61.60
19947;DHT22;10135;50.702;7.276;2024-02-15T15:57:20;18.20;61.60
19947;DHT22;10135;50.702;7.276;2024-02-15T15:59:21;18.20;61.60
19947;DHT22;10135;50.702;7.276;2024-02-15T16:01:22;18.20;61.60
19947;DHT22;10135;50.702;7.276;2024-02-15T16:03:22;18.20;61.60
19947;DHT22;10135;50.702;7.276;2024-02-15T16:05:23;18.20;61.60
19947;DHT22;10135;50.702;7.276;2024-02-15T16:07:27;18.10;61.60
19947;DHT22;10135;50.702;7.276;2024-02-15T16:09:27;18.10;61.60
19947;DHT22;10135;50.702;7.276;2024-02-15T16:11:28;18.10;61.60
19947;DHT22;10135;50.702;7.276;2024-02-15T16:13:28;18.10;61.60
19947;DHT22;10135;50.702;7.276;2024-02-15T16:15:29;18.10;61.60
19947;DHT22;10135;50.702;7.276;2024-02-15T16:17:31;18.10;61.50
19947;DHT22;10135;50.702;7.276;2024-02-15T16:19:36;18.10;61.60
19947;DHT22;10135;50.702;7.276;2024-02-15T16:21:37;18.00;61.30
19947;DHT22;10135;50.702;7.276;2024-02-15T16:23:38;18.00;61.40
19947;DHT22;10135;50.702;7.276;2024-02-15T16:25:39;18.00;61.40
19947;DHT22;10135;50.702;7.276;2024-02-15T16:27:41;18.00;61.40
19947;DHT22;10135;50.702;7.276;2024-02-15T16:29:46;18.00;61.40
19947;DHT22;10135;50.702;7.276;2024-02-15T16:31:47;17.90;61.50
19947;DHT22;10135;50.702;7.276;2024-02-15T16:33:47;17.90;61.40
19947;DHT22;10135;50.702;7.276;2024-02-15T16:35:48;17.90;61.50
19947;DHT22;10135;50.702;7.276;2024-02-15T16:37:48;17.80;61.30
19947;DHT22;10135;50.702;7.276;2024-02-15T16:39:50;17.90;61.50
19947;DHT22;10135;50.702;7.276;2024-02-15T16:41:54;17.80;61.40
19947;DHT22;10135;50.702;7.276;2024-02-15T16:43:54;17.80;61.60
19947;DHT22;10135;50.702;7.276;2024-02-15T16:45:57;17.70;61.30
19947;DHT22;10135;50.702;7.276;2024-02-15T16:47:59;17.70;61.30
19947;DHT22;10135;50.702;7.276;2024-02-15T16:50:01;17.70;61.40
19947;DHT22;10135;50.702;7.276;2024-02-15T16:52:02;17.70;61.50
19947;DHT22;10135;50.702;7.276;2024-02-15T16:54:03;17.60;61.40
19947;DHT22;10135;50.702;7.276;2024-02-15T16:56:05;17.50;61.30
19947;DHT22;10135;50.702;7.276;2024-02-15T16:58:08;17.60;61.50
19947;DHT22;10135;50.702;7.276;2024-02-15T17:00:10;17.50;61.40
19947;DHT22;10135;50.702;7.276;2024-02-15T17:02:12;17.50;61.40
19947;DHT22;10135;50.702;7.276;2024-02-15T17:04:13;17.40;61.40
19947;DHT22;10135;50.702;7.276;2024-02-15T17:06:16;17.40;61.40
19947;DHT22;10135;50.702;7.276;2024-02-15T17:08:17;17.40;61.40
19947;DHT22;10135;50.702;7.276;2024-02-15T17:10:18;17.30;61.30
19947;DHT22;10135;50.702;7.276;2024-02-15T17:12:19;17.30;61.40
19947;DHT22;10135;50.702;7.276;2024-02-15T17:14:19;17.30;61.50
19947;DHT22;10135;50.702;7.276;2024-02-15T17:16:20;17.30;61.50
19947;DHT22;10135;50.702;7.276;2024-02-15T17:18:21;17.30;61.90
19947;DHT22;10135;50.702;7.276;2024-02-15T17:20:22;17.30;61.60
19947;DHT22;10135;50.702;7.276;2024-02-15T17:22:25;17.20;61.50
19947;DHT22;10135;50.702;7.276;2024-02-15T17:24:28;17.20;61.50
19947;DHT22;10135;50.702;7.276;2024-02-15T17:26:29;17.20;61.60
19947;DHT22;10135;50.702;7.276;2024-02-15T17:28:30;17.10;61.50
19947;DHT22;10135;50.702;7.276;2024-02-15T17:30:31;17.10;61.50
19947;DHT22;10135;50.702;7.276;2024-02-15T17:32:32;17.10;61.60
19947;DHT22;10135;50.702;7.276;2024-02-15T17:34:32;17.10;61.60
19947;DHT22;10135;50.702;7.276;2024-02-15T17:36:33;17.00;61.60
19947;DHT22;10135;50.702;7.276;2024-02-15T17:38:34;17.10;61.60
19947;DHT22;10135;50.702;7.276;2024-02-15T17:40:36;17.00;61.70
19947;DHT22;10135;50.702;7.276;2024-02-15T17:42:40;17.00;61.60
19947;DHT22;10135;50.702;7.276;2024-02-15T17:44:42;17.00;61.70
19947;DHT22;10135;50.702;7.276;2024-02-15T17:46:45;17.00;61.70
19947;DHT22;10135;50.702;7.276;2024-02-15T17:48:46;16.90;61.70
19947;DHT22;10135;50.702;7.276;2024-02-15T17:50:47;16.90;61.70
19947;DHT22;10135;50.702;7.276;2024-02-15T17:52:50;16.90;61.70
19947;DHT22;10135;50.702;7.276;2024-02-15T17:54:51;16.90;61.70
19947;DHT22;10135;50.702;7.276;2024-02-15T17:56:51;16.90;61.70
19947;DHT22;10135;50.702;7.276;2024-02-15T17:58:53;16.90;61.70
19947;DHT22;10135;50.702;7.276;2024-02-15T18:00:54;16.90;61.70
19947;DHT22;10135;50.702;7.276;2024-02-15T18:02:55;16.90;61.70
19947;DHT22;10135;50.702;7.276;2024-02-15T18:04:56;16.90;62.50
19947;DHT22;10135;50.702;7.276;2024-02-15T18:06:56;16.90;61.70
19947;DHT22;10135;50.702;7.276;2024-02-15T18:08:57;16.90;61.70
19947;DHT22;10135;50.702;7.276;2024-02-15T18:10:58;16.80;61.70
19947;DHT22;10135;50.702;7.276;2024-02-15T18:13:00;16.80;61.70
19947;DHT22;10135;50.702;7.276;2024-02-15T18:15:01;16.80;61.70
19947;DHT22;10135;50.702;7.276;2024-02-15T18:17:01;16.80;61.70
19947;DHT22;10135;50.702;7.276;2024-02-15T18:19:02;16.80;61.70
19947;DHT22;10135;50.702;7.276;2024-02-15T18:21:04;16.80;61.70
19947;DHT22;10135;50.702;7.276;2024-02-15T18:23:06;16.80;61.70
19947;DHT22;10135;50.702;7.276;2024-02-15T18:25:09;16.80;61.70
19947;DHT22;10135;50.702;7.276;2024-02-15T18:27:10;16.70;61.70
19947;DHT22;10135;50.702;7.276;2024-02-15T18:29:10;16.70;61.70
19947;DHT22;10135;50.702;7.276;2024-02-15T18:31:13;16.70;61.70
19947;DHT22;10135;50.702;7.276;2024-02-15T18:33:14;16.70;61.60
19947;DHT22;10135;50.702;7.276;2024-02-15T18:35:15;16.70;61.70
19947;DHT22;10135;50.702;7.276;2024-02-15T18:37:16;16.70;61.70
19947;DHT22;10135;50.702;7.276;2024-02-15T18:39:17;16.70;61.70
19947;DHT22;10135;50.702;7.276;2024-02-15T18:41:17;16.60;61.60
19947;DHT22;10135;50.702;7.276;2024-02-15T18:43:18;16.60;61.50
19947;DHT22;10135;50.702;7.276;2024-02-15T18:45:19;16.60;61.60
19947;DHT22;10135;50.702;7.276;2024-02-15T18:47:19;16.60;61.60
19947;DHT22;10135;50.702;7.276;2024-02-15T18:49:22;16.60;61.60
19947;DHT22;10135;50.702;7.276;2024-02-15T18:51:22;16.60;61.60
19947;DHT22;10135;50.702;7.276;2024-02-15T18:53:25;16.60;61.60
19947;DHT22;10135;50.702;7.276;2024-02-15T18:55:26;16.60;61.60
19947;DHT22;10135;50.702;7.276;2024-02-15T18:57:27;16.50;61.60
19947;DHT22;10135;50.702;7.276;2024-02-15T18:59:28;16.50;61.60
19947;DHT22;10135;50.702;7.276;2024-02-15T19:01:29;16.50;61.60
19947;DHT22;10135;50.702;7.276;2024-02-15T19:03:30;16.50;61.70